createdAt,value
2019-01-04T00:00:57.249Z,20.82
2019-01-04T00:01:57.203Z,20.87
2019-01-04T00:02:57.154Z,20.85
2019-01-04T00:03:57.110Z,20.87
2019-01-04T00:04:57.061Z,20.92
2019-01-04T00:05:57.015Z,20.88
2019-01-04T00:06:56.969Z,20.89
2019-01-04T00:07:56.921Z,20.88
2019-01-04T00:08:56.873Z,20.87
2019-01-04T00:09:56.826Z,20.77
2019-01-04T00:10:56.779Z,20.84
2019-01-04T00:11:56.733Z,20.88
2019-01-04T00:12:56.685Z,20.88
2019-01-04T00:13:56.642Z,20.85
2019-01-04T00:14:56.691Z,20.87
2019-01-04T00:15:56.544Z,20.94
2019-01-04T00:16:56.503Z,20.92
2019-01-04T00:17:56.449Z,20.91
2019-01-04T00:18:56.407Z,20.91
2019-01-04T00:19:56.356Z,20.87
2019-01-04T00:20:56.309Z,20.88
2019-01-04T00:21:56.262Z,20.87
2019-01-04T00:22:56.218Z,20.91
2019-01-04T00:23:56.175Z,20.92
2019-01-04T00:24:56.122Z,20.89
2019-01-04T00:25:56.075Z,20.89
2019-01-04T00:26:56.028Z,20.87
2019-01-04T00:27:55.982Z,20.88
2019-01-04T00:28:56.249Z,20.87
2019-01-04T00:29:55.887Z,20.87
2019-01-04T00:30:55.840Z,20.88
2019-01-04T00:31:55.793Z,20.84
2019-01-04T00:32:55.745Z,20.88
2019-01-04T00:33:55.700Z,20.85
2019-01-04T00:34:55.652Z,20.89
2019-01-04T00:35:55.607Z,20.92
2019-01-04T00:36:55.607Z,20.92
2019-01-04T00:37:55.511Z,20.85
2019-01-04T00:38:55.468Z,20.87
2019-01-04T00:39:55.418Z,20.88
2019-01-04T00:40:55.370Z,20.82
2019-01-04T00:41:55.323Z,20.91
2019-01-04T00:42:55.277Z,20.89
2019-01-04T00:43:55.228Z,20.85
2019-01-04T00:44:55.181Z,20.92
2019-01-04T00:45:55.136Z,20.88
2019-01-04T00:46:55.088Z,20.89
2019-01-04T00:47:55.040Z,20.94
2019-01-04T00:48:54.993Z,20.92
2019-01-04T00:49:54.948Z,20.82
2019-01-04T00:50:54.899Z,20.87
2019-01-04T00:51:54.854Z,20.88
2019-01-04T00:52:54.806Z,20.85
2019-01-04T00:53:54.761Z,20.82
2019-01-04T00:54:54.712Z,20.89
2019-01-04T00:55:54.666Z,20.85
2019-01-04T00:56:54.618Z,20.82
2019-01-04T00:57:54.621Z,20.84
2019-01-04T00:58:54.524Z,20.92
2019-01-04T00:59:54.477Z,20.94
2019-01-04T01:00:54.430Z,20.82
2019-01-04T01:01:54.383Z,20.97
2019-01-04T01:02:54.337Z,20.95
2019-01-04T01:03:54.290Z,20.92
2019-01-04T01:04:54.244Z,20.92
2019-01-04T01:05:54.195Z,20.92
2019-01-04T01:06:54.149Z,20.94
2019-01-04T01:07:54.103Z,20.92
2019-01-04T01:08:54.054Z,20.89
2019-01-04T01:09:54.007Z,20.98
2019-01-04T01:10:53.960Z,20.88
2019-01-04T01:11:53.914Z,20.98
2019-01-04T01:12:53.866Z,20.95
2019-01-04T01:13:53.819Z,20.95
2019-01-04T01:14:53.772Z,20.99
2019-01-04T01:15:53.726Z,20.94
2019-01-04T01:16:53.688Z,20.99
2019-01-04T01:17:53.631Z,20.94
2019-01-04T01:18:53.587Z,20.97
2019-01-04T01:19:53.538Z,20.98
2019-01-04T01:20:53.490Z,20.95
2019-01-04T01:21:53.443Z,20.92
2019-01-04T01:22:53.397Z,20.98
2019-01-04T01:23:53.350Z,20.97
2019-01-04T01:24:53.302Z,20.88
2019-01-04T01:25:53.254Z,20.95
2019-01-04T01:26:53.209Z,21.01
2019-01-04T01:27:53.163Z,20.92
2019-01-04T01:28:53.163Z,20.97
2019-01-04T01:29:53.068Z,20.97
2019-01-04T01:30:53.021Z,20.99
2019-01-04T01:31:52.974Z,21.04
2019-01-04T01:32:52.927Z,20.95
2019-01-04T01:33:52.880Z,20.98
2019-01-04T01:34:52.833Z,20.98
2019-01-04T01:35:52.786Z,20.98
2019-01-04T01:36:52.739Z,20.95
2019-01-04T01:37:52.692Z,21.03
2019-01-04T01:38:52.645Z,20.95
2019-01-04T01:39:52.598Z,21.01
2019-01-04T01:40:52.601Z,20.91
2019-01-04T01:41:52.504Z,20.97
2019-01-04T01:42:52.456Z,20.98
2019-01-04T01:43:52.413Z,20.91
2019-01-04T01:44:52.363Z,21.01
2019-01-04T01:45:52.317Z,20.98
2019-01-04T01:46:52.269Z,20.95
2019-01-04T01:47:52.223Z,20.94
2019-01-04T01:48:52.175Z,20.92
2019-01-04T01:49:52.128Z,20.98
2019-01-04T01:50:52.081Z,21.04
2019-01-04T01:51:52.034Z,20.99
2019-01-04T01:52:51.987Z,20.95
2019-01-04T01:53:51.940Z,20.99
2019-01-04T01:54:51.894Z,20.98
2019-01-04T01:55:51.847Z,20.95
2019-01-04T01:56:51.803Z,20.95
2019-01-04T01:57:51.754Z,20.99
2019-01-04T01:58:51.706Z,20.97
2019-01-04T01:59:51.659Z,20.97
2019-01-04T02:00:51.661Z,20.98
2019-01-04T02:01:51.565Z,20.98
2019-01-04T02:02:51.518Z,20.92
2019-01-04T02:03:51.472Z,20.95
2019-01-04T02:04:51.422Z,20.92
2019-01-04T02:05:51.377Z,21.01
2019-01-04T02:06:51.329Z,20.99
2019-01-04T02:07:51.286Z,20.92
2019-01-04T02:08:51.236Z,21.03
2019-01-04T02:09:51.190Z,20.95
2019-01-04T02:10:51.142Z,20.94
2019-01-04T02:11:51.095Z,20.92
2019-01-04T02:12:51.050Z,20.99
2019-01-04T02:13:51.001Z,20.98
2019-01-04T02:14:50.955Z,21.03
2019-01-04T02:15:50.908Z,20.99
2019-01-04T02:16:50.860Z,20.92
2019-01-04T02:17:50.814Z,21.03
2019-01-04T02:18:50.766Z,20.95
2019-01-04T02:19:50.719Z,20.95
2019-01-04T02:20:50.672Z,20.91
2019-01-04T02:21:50.625Z,20.95
2019-01-04T02:22:50.629Z,20.99
2019-01-04T02:23:50.532Z,21.03
2019-01-04T02:24:50.487Z,20.95
2019-01-04T02:25:50.436Z,20.97
2019-01-04T02:26:50.390Z,20.95
2019-01-04T02:27:50.344Z,21.09
2019-01-04T02:28:50.296Z,21.04
2019-01-04T02:29:50.251Z,20.98
2019-01-04T02:30:50.202Z,21.03
2019-01-04T02:31:50.157Z,20.94
2019-01-04T02:32:50.110Z,20.94
2019-01-04T02:33:50.062Z,21.01
2019-01-04T02:34:50.014Z,20.99
2019-01-04T02:35:49.968Z,21.04
2019-01-04T02:36:49.923Z,21.04
2019-01-04T02:37:49.884Z,21.04
2019-01-04T02:38:49.827Z,20.97
2019-01-04T02:39:49.780Z,20.95
2019-01-04T02:40:49.733Z,21.04
2019-01-04T02:41:49.735Z,21.04
2019-01-04T02:42:49.740Z,20.99
2019-01-04T02:43:49.744Z,21.01
2019-01-04T02:44:49.555Z,20.97
2019-01-04T02:45:49.497Z,20.97
2019-01-04T02:46:49.453Z,20.92
2019-01-04T02:47:49.404Z,20.99
2019-01-04T02:48:49.357Z,21.04
2019-01-04T02:49:49.310Z,21.01
2019-01-04T02:50:49.263Z,20.98
2019-01-04T02:51:49.216Z,20.99
2019-01-04T02:52:49.168Z,21.03
2019-01-04T02:53:49.122Z,21.01
2019-01-04T02:54:49.080Z,20.94
2019-01-04T02:55:49.028Z,20.95
2019-01-04T02:56:48.981Z,21.01
2019-01-04T02:57:48.934Z,20.95
2019-01-04T02:58:48.892Z,20.99
2019-01-04T02:59:48.840Z,20.92
2019-01-04T03:00:49.114Z,20.97
2019-01-04T03:01:49.162Z,20.95
2019-01-04T03:02:48.749Z,21.01
2019-01-04T03:03:48.752Z,20.92
2019-01-04T03:04:48.761Z,20.98
2019-01-04T03:05:48.558Z,20.98
2019-01-04T03:06:48.510Z,20.94
2019-01-04T03:07:48.465Z,21.03
2019-01-04T03:08:48.417Z,20.91
2019-01-04T03:09:48.371Z,20.97
2019-01-04T03:10:48.323Z,20.97
2019-01-04T03:11:48.277Z,21.03
2019-01-04T03:12:48.229Z,21.06
2019-01-04T03:13:48.187Z,21.04
2019-01-04T03:14:48.135Z,20.95
2019-01-04T03:15:48.090Z,21.01
2019-01-04T03:16:48.042Z,21.01
2019-01-04T03:17:47.993Z,21.03
2019-01-04T03:18:47.948Z,20.97
2019-01-04T03:19:47.904Z,21.04
2019-01-04T03:20:47.854Z,20.92
2019-01-04T03:21:47.808Z,20.97
2019-01-04T03:22:47.761Z,21.04
2019-01-04T03:23:47.713Z,20.92
2019-01-04T03:24:47.670Z,21.07
2019-01-04T03:25:47.668Z,21.01
2019-01-04T03:26:47.571Z,21.01
2019-01-04T03:27:47.530Z,21.01
2019-01-04T03:28:47.478Z,21.04
2019-01-04T03:29:47.431Z,20.99
2019-01-04T03:30:47.384Z,20.97
2019-01-04T03:31:47.338Z,21.04
2019-01-04T03:32:47.291Z,20.99
2019-01-04T03:33:47.247Z,20.92
2019-01-04T03:34:47.196Z,20.92
2019-01-04T03:35:47.150Z,20.98
2019-01-04T03:36:47.102Z,20.97
2019-01-04T03:37:47.058Z,20.94
2019-01-04T03:38:47.009Z,20.99
2019-01-04T03:39:46.968Z,21.01
2019-01-04T03:40:46.914Z,20.97
2019-01-04T03:41:46.870Z,20.97
2019-01-04T03:42:46.822Z,20.98
2019-01-04T03:43:46.774Z,21.01
2019-01-04T03:44:46.726Z,21.04
2019-01-04T03:45:46.679Z,21.03
2019-01-04T03:46:46.634Z,20.95
2019-01-04T03:47:46.636Z,20.98
2019-01-04T03:48:46.538Z,20.97
2019-01-04T03:49:46.493Z,20.95
2019-01-04T03:50:46.458Z,20.91
2019-01-04T03:51:46.398Z,20.95
2019-01-04T03:52:46.369Z,20.94
2019-01-04T03:53:46.303Z,20.94
2019-01-04T03:54:46.257Z,20.95
2019-01-04T03:55:46.210Z,20.94
2019-01-04T03:56:46.162Z,21.03
2019-01-04T03:57:46.115Z,21.01
2019-01-04T03:58:46.074Z,20.97
2019-01-04T03:59:46.022Z,21.04
2019-01-04T04:00:45.974Z,20.92
2019-01-04T04:01:45.928Z,21.04
2019-01-04T04:02:45.881Z,20.97
2019-01-04T04:03:45.836Z,20.98
2019-01-04T04:04:45.793Z,21.06
2019-01-04T04:05:45.739Z,21.01
2019-01-04T04:06:45.693Z,20.98
2019-01-04T04:07:45.646Z,20.95
2019-01-04T04:08:45.650Z,20.97
2019-01-04T04:09:45.602Z,20.99
2019-01-04T04:10:45.505Z,21.03
2019-01-04T04:11:45.461Z,20.99
2019-01-04T04:12:45.411Z,21.01
2019-01-04T04:13:45.368Z,21.03
2019-01-04T04:14:45.318Z,20.97
2019-01-04T04:15:45.271Z,20.95
2019-01-04T04:16:45.224Z,20.97
2019-01-04T04:17:45.178Z,21.04
2019-01-04T04:18:45.130Z,21.04
2019-01-04T04:19:45.083Z,21.07
2019-01-04T04:20:45.036Z,21.01
2019-01-04T04:21:44.990Z,20.98
2019-01-04T04:22:44.944Z,20.99
2019-01-04T04:23:44.897Z,21.07
2019-01-04T04:24:44.847Z,20.92
2019-01-04T04:25:44.801Z,20.92
2019-01-04T04:26:44.755Z,21.04
2019-01-04T04:27:44.709Z,21.07
2019-01-04T04:28:44.667Z,20.95
2019-01-04T04:29:44.612Z,20.98
2019-01-04T04:30:44.617Z,20.98
2019-01-04T04:31:44.520Z,21.03
2019-01-04T04:32:44.472Z,20.99
2019-01-04T04:33:44.425Z,21.06
2019-01-04T04:34:44.378Z,21.04
2019-01-04T04:35:44.332Z,21.06
2019-01-04T04:36:44.284Z,20.94
2019-01-04T04:37:44.237Z,20.98
2019-01-04T04:38:44.191Z,21.04
2019-01-04T04:39:44.144Z,20.99
2019-01-04T04:40:44.097Z,20.97
2019-01-04T04:41:44.050Z,21.06
2019-01-04T04:42:44.003Z,20.98
2019-01-04T04:43:43.957Z,21.04
2019-01-04T04:44:43.909Z,21.01
2019-01-04T04:45:43.863Z,21.01
2019-01-04T04:46:43.816Z,21.06
2019-01-04T04:47:43.777Z,20.98
2019-01-04T04:48:43.733Z,20.95
2019-01-04T04:49:43.674Z,21.01
2019-01-04T04:50:43.631Z,20.98
2019-01-04T04:51:43.581Z,21.03
2019-01-04T04:52:43.633Z,21.01
2019-01-04T04:53:43.486Z,21.03
2019-01-04T04:54:43.440Z,21.01
2019-01-04T04:55:43.395Z,21.01
2019-01-04T04:56:43.349Z,20.98
2019-01-04T04:57:43.299Z,20.98
2019-01-04T04:58:43.252Z,20.99
2019-01-04T04:59:43.213Z,20.99
2019-01-04T05:00:43.157Z,20.99
2019-01-04T05:01:43.111Z,20.99
2019-01-04T05:02:43.084Z,20.97
2019-01-04T05:03:43.018Z,20.99
2019-01-04T05:04:42.976Z,21.06
2019-01-04T05:05:42.923Z,21.06
2019-01-04T05:06:42.883Z,20.98
2019-01-04T05:07:42.828Z,21.01
2019-01-04T05:08:42.782Z,21.06
2019-01-04T05:09:42.735Z,21.07
2019-01-04T05:10:42.688Z,21.07
2019-01-04T05:11:42.642Z,21.04
2019-01-04T05:12:42.594Z,21.04
2019-01-04T05:13:42.546Z,21.07
2019-01-04T05:14:42.506Z,21.06
2019-01-04T05:15:42.454Z,21.04
2019-01-04T05:16:42.407Z,20.99
2019-01-04T05:17:42.360Z,20.99
2019-01-04T05:18:42.314Z,20.99
2019-01-04T05:19:42.266Z,21.04
2019-01-04T05:20:42.219Z,20.97
2019-01-04T05:21:42.172Z,21.04
2019-01-04T05:22:42.125Z,20.94
2019-01-04T05:23:42.080Z,21.01
2019-01-04T05:24:42.038Z,21.01
2019-01-04T05:25:41.984Z,21.04
2019-01-04T05:26:41.937Z,21.07
2019-01-04T05:27:41.890Z,21.07
2019-01-04T05:28:41.842Z,21.14
2019-01-04T05:29:41.796Z,21.09
2019-01-04T05:30:41.754Z,21.10
2019-01-04T05:31:41.702Z,21.03
2019-01-04T05:32:41.659Z,21.09
2019-01-04T05:33:41.658Z,21.07
2019-01-04T05:34:41.612Z,21.03
2019-01-04T05:35:41.533Z,21.04
2019-01-04T05:36:41.469Z,21.01
2019-01-04T05:37:41.421Z,21.04
2019-01-04T05:38:41.374Z,21.03
2019-01-04T05:39:41.329Z,20.99
2019-01-04T05:40:41.285Z,20.99
2019-01-04T05:41:41.233Z,20.95
2019-01-04T05:42:41.186Z,21.01
2019-01-04T05:43:41.139Z,21.03
2019-01-04T05:44:41.090Z,21.06
2019-01-04T05:45:41.045Z,21.06
2019-01-04T05:46:40.997Z,21.03
2019-01-04T05:47:40.953Z,20.95
2019-01-04T05:48:40.907Z,21.01
2019-01-04T05:49:40.857Z,21.09
2019-01-04T05:50:40.810Z,21.04
2019-01-04T05:51:40.764Z,21.04
2019-01-04T05:52:40.716Z,21.06
2019-01-04T05:53:40.669Z,20.99
2019-01-04T05:54:40.623Z,21.03
2019-01-04T05:55:40.576Z,21.01
2019-01-04T05:56:40.628Z,20.99
2019-01-04T05:57:40.483Z,20.98
2019-01-04T05:58:40.433Z,21.03
2019-01-04T05:59:40.389Z,21.03
2019-01-04T06:00:40.341Z,20.98
2019-01-04T06:01:40.301Z,21.01
2019-01-04T06:02:40.250Z,21.01
2019-01-04T06:03:40.202Z,21.07
2019-01-04T06:04:40.154Z,20.99
2019-01-04T06:05:40.106Z,20.99
2019-01-04T06:06:40.060Z,20.99
2019-01-04T06:07:40.014Z,21.01
2019-01-04T06:08:39.969Z,21.03
2019-01-04T06:09:39.920Z,20.99
2019-01-04T06:10:39.871Z,21.06
2019-01-04T06:11:39.825Z,20.98
2019-01-04T06:12:39.777Z,20.99
2019-01-04T06:13:39.731Z,21.06
2019-01-04T06:14:39.683Z,20.99
2019-01-04T06:15:39.637Z,20.98
2019-01-04T06:16:39.639Z,21.07
2019-01-04T06:17:39.592Z,21.12
2019-01-04T06:18:39.497Z,21.03
2019-01-04T06:19:39.449Z,21.07
2019-01-04T06:20:39.400Z,21.06
2019-01-04T06:21:39.354Z,21.06
2019-01-04T06:22:39.308Z,21.07
2019-01-04T06:23:39.261Z,21.10
2019-01-04T06:24:39.213Z,21.09
2019-01-04T06:25:39.167Z,21.13
2019-01-04T06:26:39.118Z,21.07
2019-01-04T06:27:39.074Z,21.04
2019-01-04T06:28:39.026Z,21.06
2019-01-04T06:29:38.981Z,21.03
2019-01-04T06:30:38.932Z,21.06
2019-01-04T06:31:38.885Z,21.03
2019-01-04T06:32:38.838Z,21.03
2019-01-04T06:33:38.791Z,21.06
2019-01-04T06:34:38.743Z,21.04
2019-01-04T06:35:38.699Z,21.06
2019-01-04T06:36:38.649Z,21.14
2019-01-04T06:37:38.653Z,21.03
2019-01-04T06:38:38.563Z,21.07
2019-01-04T06:39:38.510Z,21.07
2019-01-04T06:40:38.462Z,20.99
2019-01-04T06:41:38.414Z,21.04
2019-01-04T06:42:38.368Z,21.06
2019-01-04T06:43:38.322Z,21.10
2019-01-04T06:44:38.273Z,21.04
2019-01-04T06:45:38.227Z,21.03
2019-01-04T06:46:38.181Z,21.06
2019-01-04T06:47:38.134Z,21.04
2019-01-04T06:48:38.086Z,21.07
2019-01-04T06:49:38.040Z,21.06
2019-01-04T06:50:37.993Z,21.03
2019-01-04T06:51:37.946Z,21.07
2019-01-04T06:52:37.900Z,21.04
2019-01-04T06:53:37.851Z,21.09
2019-01-04T06:54:37.804Z,21.09
2019-01-04T06:55:37.759Z,21.06
2019-01-04T06:56:37.710Z,21.06
2019-01-04T06:57:37.664Z,21.06
2019-01-04T06:58:37.617Z,21.06
2019-01-04T06:59:37.569Z,21.13
2019-01-04T07:00:37.572Z,21.10
2019-01-04T07:01:37.793Z,21.10
2019-01-04T07:02:37.429Z,21.06
2019-01-04T07:03:37.385Z,21.13
2019-01-04T07:04:37.334Z,21.06
2019-01-04T07:05:37.288Z,21.06
2019-01-04T07:06:37.244Z,21.06
2019-01-04T07:07:37.196Z,21.09
2019-01-04T07:08:37.145Z,21.10
2019-01-04T07:09:37.100Z,21.09
2019-01-04T07:10:37.052Z,21.09
2019-01-04T07:11:37.007Z,21.12
2019-01-04T07:12:36.959Z,21.09
2019-01-04T07:13:36.912Z,21.12
2019-01-04T07:14:36.864Z,21.16
2019-01-04T07:15:36.819Z,21.13
2019-01-04T07:16:36.773Z,21.14
2019-01-04T07:17:36.724Z,21.10
2019-01-04T07:18:36.677Z,21.07
2019-01-04T07:19:36.631Z,21.09
2019-01-04T07:20:36.583Z,21.07
2019-01-04T07:21:36.550Z,21.13
2019-01-04T07:22:36.488Z,21.09
2019-01-04T07:23:36.442Z,21.07
2019-01-04T07:24:36.395Z,21.07
2019-01-04T07:25:36.347Z,21.12
2019-01-04T07:26:36.302Z,21.16
2019-01-04T07:27:36.261Z,21.10
2019-01-04T07:28:36.207Z,21.10
2019-01-04T07:29:36.160Z,21.09
2019-01-04T07:30:36.112Z,21.09
2019-01-04T07:31:36.066Z,21.14
2019-01-04T07:32:36.019Z,21.03
2019-01-04T07:33:35.978Z,21.04
2019-01-04T07:34:35.926Z,21.06
2019-01-04T07:35:35.879Z,21.04
2019-01-04T07:36:35.832Z,21.06
2019-01-04T07:37:35.787Z,21.06
2019-01-04T07:38:35.737Z,21.10
2019-01-04T07:39:35.691Z,21.01
2019-01-04T07:40:35.644Z,21.01
2019-01-04T07:41:35.649Z,20.95
2019-01-04T07:42:35.600Z,21.04
2019-01-04T07:43:35.504Z,21.04
2019-01-04T07:44:35.455Z,21.01
2019-01-04T07:45:35.509Z,21.04
2019-01-04T07:46:35.361Z,21.07
2019-01-04T07:47:35.315Z,21.04
2019-01-04T07:48:35.269Z,21.03
2019-01-04T07:49:35.221Z,21.04
2019-01-04T07:50:35.175Z,21.03
2019-01-04T07:51:35.134Z,21.03
2019-01-04T07:52:35.080Z,20.99
2019-01-04T07:53:35.041Z,21.01
2019-01-04T07:54:34.986Z,21.03
2019-01-04T07:55:34.940Z,20.99
2019-01-04T07:56:34.893Z,21.01
2019-01-04T07:57:34.850Z,20.99
2019-01-04T07:58:34.799Z,20.99
2019-01-04T07:59:34.752Z,20.98
2019-01-04T08:00:34.705Z,20.97
2019-01-04T08:01:34.658Z,20.99
2019-01-04T08:02:34.611Z,21.03
2019-01-04T08:03:34.564Z,21.01
2019-01-04T08:04:34.566Z,21.07
2019-01-04T08:05:34.478Z,21.07
2019-01-04T08:06:34.422Z,21.03
2019-01-04T08:07:34.376Z,21.01
2019-01-04T08:08:34.328Z,20.97
2019-01-04T08:09:34.282Z,21.03
2019-01-04T08:10:34.235Z,21.04
2019-01-04T08:11:34.198Z,21.07
2019-01-04T08:12:34.140Z,21.04
2019-01-04T08:13:34.094Z,21.06
2019-01-04T08:14:34.048Z,21.06
2019-01-04T08:15:34.002Z,21.07
2019-01-04T08:16:33.953Z,21.14
2019-01-04T08:17:33.906Z,21.06
2019-01-04T08:18:33.860Z,21.06
2019-01-04T08:19:33.813Z,21.10
2019-01-04T08:20:33.766Z,21.09
2019-01-04T08:21:33.719Z,21.10
2019-01-04T08:22:33.672Z,21.09
2019-01-04T08:23:33.625Z,21.10
2019-01-04T08:24:33.629Z,21.09
2019-01-04T08:25:33.581Z,20.98
2019-01-04T08:26:33.484Z,21.10
2019-01-04T08:27:33.438Z,21.07
2019-01-04T08:28:33.389Z,21.04
2019-01-04T08:29:33.343Z,21.09
2019-01-04T08:30:33.297Z,21.04
2019-01-04T08:31:33.249Z,21.07
2019-01-04T08:32:33.202Z,21.12
2019-01-04T08:33:33.155Z,21.12
2019-01-04T08:34:33.109Z,21.17
2019-01-04T08:35:33.062Z,21.09
2019-01-04T08:36:33.014Z,21.10
2019-01-04T08:37:32.974Z,21.10
2019-01-04T08:38:32.921Z,21.10
2019-01-04T08:39:32.873Z,21.07
2019-01-04T08:40:32.827Z,21.09
2019-01-04T08:41:32.780Z,21.16
2019-01-04T08:42:32.733Z,21.10
2019-01-04T08:43:32.689Z,21.14
2019-01-04T08:44:32.645Z,21.12
2019-01-04T08:45:32.592Z,21.09
2019-01-04T08:46:32.650Z,21.14
2019-01-04T08:47:32.499Z,21.19
2019-01-04T08:48:32.454Z,21.09
2019-01-04T08:49:32.404Z,21.21
2019-01-04T08:50:32.358Z,21.09
2019-01-04T08:51:32.319Z,21.10
2019-01-04T08:52:32.267Z,21.10
2019-01-04T08:53:32.217Z,21.06
2019-01-04T08:54:32.170Z,21.16
2019-01-04T08:55:32.124Z,21.16
2019-01-04T08:56:32.076Z,21.24
2019-01-04T08:57:32.029Z,21.14
2019-01-04T08:58:31.987Z,21.17
2019-01-04T08:59:31.935Z,21.19
2019-01-04T09:00:31.888Z,21.17
2019-01-04T09:01:31.842Z,21.17
2019-01-04T09:02:31.795Z,21.19
2019-01-04T09:03:31.749Z,21.12
2019-01-04T09:04:31.701Z,21.09
2019-01-04T09:05:31.655Z,21.13
2019-01-04T09:06:31.608Z,21.17
2019-01-04T09:07:31.561Z,21.14
2019-01-04T09:08:31.514Z,21.19
2019-01-04T09:09:31.466Z,21.21
2019-01-04T09:10:31.419Z,21.12
2019-01-04T09:11:31.373Z,21.17
2019-01-04T09:12:31.325Z,21.19
2019-01-04T09:13:31.279Z,21.21
2019-01-04T09:14:31.232Z,21.12
2019-01-04T09:15:31.186Z,21.17
2019-01-04T09:16:31.140Z,21.10
2019-01-04T09:17:31.092Z,21.10
2019-01-04T09:18:31.045Z,20.95
2019-01-04T09:19:30.999Z,21.13
2019-01-04T09:20:30.958Z,21.12
2019-01-04T09:21:30.905Z,21.13
2019-01-04T09:22:30.857Z,21.16
2019-01-04T09:23:30.811Z,21.16
2019-01-04T09:24:30.763Z,21.21
2019-01-04T09:25:30.716Z,21.17
2019-01-04T09:26:30.670Z,21.10
2019-01-04T09:27:30.624Z,21.14
2019-01-04T09:28:30.578Z,21.22
2019-01-04T09:29:30.531Z,21.10
2019-01-04T09:30:30.482Z,21.17
2019-01-04T09:31:30.437Z,21.10
2019-01-04T09:32:30.388Z,21.07
2019-01-04T09:33:30.352Z,21.13
2019-01-04T09:34:30.297Z,21.13
2019-01-04T09:35:30.248Z,21.16
2019-01-04T09:36:30.202Z,21.13
2019-01-04T09:37:30.152Z,21.16
2019-01-04T09:38:30.106Z,21.14
2019-01-04T09:39:30.059Z,21.16
2019-01-04T09:40:30.012Z,21.13
2019-01-04T09:41:29.969Z,21.14
2019-01-04T09:42:29.919Z,21.12
2019-01-04T09:43:29.875Z,21.17
2019-01-04T09:44:29.828Z,21.19
2019-01-04T09:45:29.779Z,21.17
2019-01-04T09:46:29.732Z,21.09
2019-01-04T09:47:29.685Z,21.19
2019-01-04T09:48:29.638Z,21.14
2019-01-04T09:49:29.601Z,21.10
2019-01-04T09:50:29.545Z,21.10
2019-01-04T09:51:29.498Z,21.12
2019-01-04T09:52:29.450Z,21.17
2019-01-04T09:53:29.403Z,21.21
2019-01-04T09:54:29.362Z,21.17
2019-01-04T09:55:29.310Z,21.12
2019-01-04T09:56:29.262Z,21.17
2019-01-04T09:57:29.215Z,21.16
2019-01-04T09:58:29.169Z,21.17
2019-01-04T09:59:29.125Z,21.14
2019-01-04T10:00:29.077Z,21.17
2019-01-04T10:01:29.028Z,21.17
2019-01-04T10:02:28.981Z,21.17
2019-01-04T10:03:28.935Z,21.19
2019-01-04T10:04:28.887Z,21.17
2019-01-04T10:05:28.840Z,21.16
2019-01-04T10:06:28.794Z,21.21
2019-01-04T10:07:28.748Z,21.13
2019-01-04T10:08:28.699Z,21.22
2019-01-04T10:09:28.653Z,21.24
2019-01-04T10:10:28.606Z,21.21
2019-01-04T10:11:28.610Z,21.21
2019-01-04T10:12:28.513Z,21.19
2019-01-04T10:13:28.466Z,21.21
2019-01-04T10:14:28.419Z,21.16
2019-01-04T10:15:28.372Z,21.21
2019-01-04T10:16:28.324Z,21.22
2019-01-04T10:17:28.278Z,21.25
2019-01-04T10:18:28.231Z,21.19
2019-01-04T10:19:28.183Z,21.25
2019-01-04T10:20:28.137Z,21.24
2019-01-04T10:21:28.090Z,21.24
2019-01-04T10:22:28.042Z,21.17
2019-01-04T10:23:27.997Z,21.19
2019-01-04T10:24:27.958Z,21.21
2019-01-04T10:25:27.902Z,21.25
2019-01-04T10:26:27.858Z,21.21
2019-01-04T10:27:27.812Z,21.27
2019-01-04T10:28:27.762Z,21.19
2019-01-04T10:29:27.715Z,21.17
2019-01-04T10:30:27.672Z,21.21
2019-01-04T10:31:27.620Z,21.21
2019-01-04T10:32:27.574Z,21.17
2019-01-04T10:33:27.578Z,21.12
2019-01-04T10:34:27.481Z,21.24
2019-01-04T10:35:27.434Z,21.21
2019-01-04T10:36:27.386Z,21.13
2019-01-04T10:37:27.341Z,21.19
2019-01-04T10:38:27.296Z,21.24
2019-01-04T10:39:27.247Z,21.16
2019-01-04T10:40:27.199Z,21.22
2019-01-04T10:41:27.151Z,21.17
2019-01-04T10:42:27.106Z,21.17
2019-01-04T10:43:27.058Z,21.24
2019-01-04T10:44:27.023Z,21.16
2019-01-04T10:45:26.965Z,21.22
2019-01-04T10:46:26.918Z,21.25
2019-01-04T10:47:26.872Z,21.10
2019-01-04T10:48:26.826Z,21.21
2019-01-04T10:49:26.778Z,21.14
2019-01-04T10:50:26.729Z,21.16
2019-01-04T10:51:26.683Z,21.22
2019-01-04T10:52:26.636Z,21.19
2019-01-04T10:53:26.590Z,21.27
2019-01-04T10:54:26.543Z,21.14
2019-01-04T10:55:26.500Z,21.27
2019-01-04T10:56:26.449Z,21.19
2019-01-04T10:57:26.401Z,21.19
2019-01-04T10:58:26.356Z,21.14
2019-01-04T10:59:26.309Z,21.24
2019-01-04T11:00:26.261Z,21.21
2019-01-04T11:01:26.214Z,21.28
2019-01-04T11:02:26.212Z,21.21
2019-01-04T11:03:26.125Z,21.21
2019-01-04T11:04:26.073Z,21.24
2019-01-04T11:05:26.026Z,21.16
2019-01-04T11:06:25.980Z,21.24
2019-01-04T11:07:25.934Z,21.25
2019-01-04T11:08:25.886Z,21.29
2019-01-04T11:09:25.843Z,21.25
2019-01-04T11:10:25.793Z,21.27
2019-01-04T11:11:25.746Z,21.27
2019-01-04T11:12:25.698Z,21.22
2019-01-04T11:13:25.651Z,21.21
2019-01-04T11:14:25.607Z,21.32
2019-01-04T11:15:25.558Z,21.17
2019-01-04T11:16:25.611Z,21.24
2019-01-04T11:17:25.464Z,21.24
2019-01-04T11:18:25.417Z,21.25
2019-01-04T11:19:25.371Z,21.22
2019-01-04T11:20:25.322Z,21.17
2019-01-04T11:21:25.277Z,21.27
2019-01-04T11:22:25.242Z,21.27
2019-01-04T11:23:25.183Z,21.24
2019-01-04T11:24:25.136Z,21.21
2019-01-04T11:25:25.089Z,21.27
2019-01-04T11:26:25.045Z,21.19
2019-01-04T11:27:24.996Z,21.16
2019-01-04T11:28:24.949Z,21.27
2019-01-04T11:29:24.901Z,21.16
2019-01-04T11:30:24.855Z,21.28
2019-01-04T11:31:24.808Z,21.27
2019-01-04T11:32:24.759Z,21.22
2019-01-04T11:33:24.714Z,21.21
2019-01-04T11:34:24.668Z,21.27
2019-01-04T11:35:24.620Z,21.22
2019-01-04T11:36:24.573Z,21.24
2019-01-04T11:37:24.526Z,21.32
2019-01-04T11:38:24.480Z,21.25
2019-01-04T11:39:24.437Z,21.25
2019-01-04T11:40:24.386Z,21.28
2019-01-04T11:41:24.338Z,21.25
2019-01-04T11:42:24.292Z,21.29
2019-01-04T11:43:24.246Z,21.28
2019-01-04T11:44:24.197Z,21.31
2019-01-04T11:45:24.151Z,21.28
2019-01-04T11:46:24.105Z,21.21
2019-01-04T11:47:24.058Z,21.27
2019-01-04T11:48:24.010Z,21.27
2019-01-04T11:49:23.963Z,21.29
2019-01-04T11:50:23.917Z,21.31
2019-01-04T11:51:23.870Z,21.32
2019-01-04T11:52:23.823Z,21.31
2019-01-04T11:53:23.776Z,21.27
2019-01-04T11:54:23.732Z,21.31
2019-01-04T11:55:23.683Z,21.22
2019-01-04T11:56:23.735Z,21.32
2019-01-04T11:57:23.689Z,21.22
2019-01-04T11:58:23.742Z,21.22
2019-01-04T11:59:23.495Z,21.31
2019-01-04T12:00:23.448Z,21.24
2019-01-04T12:01:23.400Z,21.28
2019-01-04T12:02:26.315Z,21.31
2019-01-04T12:03:23.308Z,21.24
2019-01-04T12:04:23.260Z,21.28
2019-01-04T12:05:23.214Z,21.24
2019-01-04T12:06:23.167Z,21.27
2019-01-04T12:07:23.120Z,21.25
2019-01-04T12:08:23.073Z,21.22
2019-01-04T12:09:23.027Z,21.32
2019-01-04T12:10:22.981Z,21.27
2019-01-04T12:11:22.932Z,21.29
2019-01-04T12:12:22.885Z,21.27
2019-01-04T12:13:22.840Z,21.31
2019-01-04T12:14:22.792Z,21.22
2019-01-04T12:15:22.748Z,21.24
2019-01-04T12:16:22.699Z,21.35
2019-01-04T12:17:22.651Z,21.17
2019-01-04T12:18:22.605Z,21.28
2019-01-04T12:19:22.558Z,21.28
2019-01-04T12:20:22.511Z,21.27
2019-01-04T12:21:22.473Z,21.25
2019-01-04T12:22:22.419Z,21.17
2019-01-04T12:23:22.449Z,21.28
2019-01-04T12:24:22.323Z,21.22
2019-01-04T12:25:22.276Z,21.27
2019-01-04T12:26:22.230Z,21.27
2019-01-04T12:27:22.183Z,21.27
2019-01-04T12:28:22.135Z,21.27
2019-01-04T12:29:22.089Z,21.25
2019-01-04T12:30:22.044Z,21.29
2019-01-04T12:31:21.999Z,21.27
2019-01-04T12:32:21.948Z,21.29
2019-01-04T12:33:21.900Z,21.28
2019-01-04T12:34:21.855Z,21.28
2019-01-04T12:35:21.808Z,21.28
2019-01-04T12:36:21.762Z,21.25
2019-01-04T12:37:21.714Z,21.25
2019-01-04T12:38:21.667Z,21.31
2019-01-04T12:39:21.620Z,21.22
2019-01-04T12:40:21.575Z,21.25
2019-01-04T12:41:21.526Z,21.25
2019-01-04T12:42:21.479Z,21.24
2019-01-04T12:43:21.432Z,21.22
2019-01-04T12:44:21.388Z,21.31
2019-01-04T12:45:21.337Z,21.27
2019-01-04T12:46:21.296Z,21.27
2019-01-04T12:47:21.320Z,21.29
2019-01-04T12:48:21.197Z,21.28
2019-01-04T12:49:21.150Z,21.31
2019-01-04T12:50:21.104Z,21.28
2019-01-04T12:51:21.057Z,21.22
2019-01-04T12:52:21.010Z,21.25